sensor_id;sensor_type;location;lat;lon;timestamp;temperature;humidity
79016;DHT22;72726;44.842;37.556;2024-03-23T00:53:19;5.31;84.04
79016;DHT22;72726;44.842;37.556;2024-03-23T00:54:20;5.31;84.24
79016;DHT22;72726;44.842;37.556;2024-03-23T00:55:22;5.33;84.24
79016;DHT22;72726;44.842;37.556;2024-03-23T00:56:23;5.31;84.24
79016;DHT22;72726;44.842;37.556;2024-03-23T00:57:25;5.31;84.41
79016;DHT22;72726;44.842;37.556;2024-03-23T00:58:26;5.29;84.60
79016;DHT22;72726;44.842;37.556;2024-03-23T00:59:27;5.31;84.68
79016;DHT22;72726;44.842;37.556;2024-03-23T01:00:29;5.33;84.59
79016;DHT22;72726;44.842;37.556;2024-03-23T01:01:30;5.35;84.56
79016;DHT22;72726;44.842;37.556;2024-03-23T01:02:32;5.36;83.84
79016;DHT22;72726;44.842;37.556;2024-03-23T01:03:34;5.33;83.61
79016;DHT22;72726;44.842;37.556;2024-03-23T01:04:35;5.35;83.64
79016;DHT22;72726;44.842;37.556;2024-03-23T01:05:36;5.35;83.94
79016;DHT22;72726;44.842;37.556;2024-03-23T01:06:38;5.32;84.02
79016;DHT22;72726;44.842;37.556;2024-03-23T01:07:40;5.28;84.09
79016;DHT22;72726;44.842;37.556;2024-03-23T01:08:41;5.25;84.23
79016;DHT22;72726;44.842;37.556;2024-03-23T01:09:42;5.26;84.47
79016;DHT22;72726;44.842;37.556;2024-03-23T01:10:56;5.24;84.62
79016;DHT22;72726;44.842;37.556;2024-03-23T01:11:58;5.22;84.86
79016;DHT22;72726;44.842;37.556;2024-03-23T01:12:59;5.18;84.93
79016;DHT22;72726;44.842;37.556;2024-03-23T01:14:01;5.16;85.05
79016;DHT22;72726;44.842;37.556;2024-03-23T01:15:02;5.15;85.05
79016;DHT22;72726;44.842;37.556;2024-03-23T01:16:04;5.16;85.14
79016;DHT22;72726;44.842;37.556;2024-03-23T01:17:05;5.14;85.20
79016;DHT22;72726;44.842;37.556;2024-03-23T01:18:06;5.15;85.00
79016;DHT22;72726;44.842;37.556;2024-03-23T01:19:08;5.19;84.98
79016;DHT22;72726;44.842;37.556;2024-03-23T01:20:09;5.18;84.86
79016;DHT22;72726;44.842;37.556;2024-03-23T01:21:11;5.21;84.92
79016;DHT22;72726;44.842;37.556;2024-03-23T01:22:12;5.24;84.76
79016;DHT22;72726;44.842;37.556;2024-03-23T01:23:14;5.29;84.73
79016;DHT22;72726;44.842;37.556;2024-03-23T01:24:15;5.31;84.70
79016;DHT22;72726;44.842;37.556;2024-03-23T01:25:16;5.26;84.58
79016;DHT22;72726;44.842;37.556;2024-03-23T01:26:18;5.29;84.70
79016;DHT22;72726;44.842;37.556;2024-03-23T01:27:19;5.29;84.68
79016;DHT22;72726;44.842;37.556;2024-03-23T01:28:21;5.33;84.45
79016;DHT22;72726;44.842;37.556;2024-03-23T01:29:22;5.31;84.34
79016;DHT22;72726;44.842;37.556;2024-03-23T01:30:23;5.33;84.49
79016;DHT22;72726;44.842;37.556;2024-03-23T01:31:25;5.32;84.30
79016;DHT22;72726;44.842;37.556;2024-03-23T01:32:26;5.32;84.41
79016;DHT22;72726;44.842;37.556;2024-03-23T01:33:27;5.32;84.27
79016;DHT22;72726;44.842;37.556;2024-03-23T01:34:28;5.29;84.32
79016;DHT22;72726;44.842;37.556;2024-03-23T01:35:30;5.26;84.00
79016;DHT22;72726;44.842;37.556;2024-03-23T01:36:31;5.21;84.39
79016;DHT22;72726;44.842;37.556;2024-03-23T01:37:33;5.18;84.60
79016;DHT22;72726;44.842;37.556;2024-03-23T01:38:34;5.15;84.57
79016;DHT22;72726;44.842;37.556;2024-03-23T01:39:35;5.15;84.70
79016;DHT22;72726;44.842;37.556;2024-03-23T01:40:37;5.15;84.80
79016;DHT22;72726;44.842;37.556;2024-03-23T01:41:38;5.15;84.97
79016;DHT22;72726;44.842;37.556;2024-03-23T01:42:43;5.16;84.65
79016;DHT22;72726;44.842;37.556;2024-03-23T01:43:56;5.09;84.92
79016;DHT22;72726;44.842;37.556;2024-03-23T01:44:58;5.12;85.21
79016;DHT22;72726;44.842;37.556;2024-03-23T01:45:59;5.14;85.29
79016;DHT22;72726;44.842;37.556;2024-03-23T01:47:01;5.16;85.18
79016;DHT22;72726;44.842;37.556;2024-03-23T01:48:02;5.16;84.90
79016;DHT22;72726;44.842;37.556;2024-03-23T01:49:05;5.14;84.91
79016;DHT22;72726;44.842;37.556;2024-03-23T01:50:07;5.14;84.84
79016;DHT22;72726;44.842;37.556;2024-03-23T01:51:09;5.14;84.84
79016;DHT22;72726;44.842;37.556;2024-03-23T01:52:10;5.11;84.84
79016;DHT22;72726;44.842;37.556;2024-03-23T01:53:12;5.09;84.88
79016;DHT22;72726;44.842;37.556;2024-03-23T01:54:14;5.09;84.95
79016;DHT22;72726;44.842;37.556;2024-03-23T01:55:16;5.08;85.06
79016;DHT22;72726;44.842;37.556;2024-03-23T01:56:18;5.09;85.23
79016;DHT22;72726;44.842;37.556;2024-03-23T01:57:22;5.07;85.29
79016;DHT22;72726;44.842;37.556;2024-03-23T01:58:23;5.07;85.17
79016;DHT22;72726;44.842;37.556;2024-03-23T01:59:24;5.07;85.40
79016;DHT22;72726;44.842;37.556;2024-03-23T02:00:25;5.09;85.51
79016;DHT22;72726;44.842;37.556;2024-03-23T02:01:29;5.08;85.16
79016;DHT22;72726;44.842;37.556;2024-03-23T02:02:31;5.09;85.28
79016;DHT22;72726;44.842;37.556;2024-03-23T02:03:32;5.11;85.28
79016;DHT22;72726;44.842;37.556;2024-03-23T02:04:33;5.12;85.18
79016;DHT22;72726;44.842;37.556;2024-03-23T02:05:34;5.12;85.31
79016;DHT22;72726;44.842;37.556;2024-03-23T02:06:36;5.15;85.31
79016;DHT22;72726;44.842;37.556;2024-03-23T02:07:41;5.16;85.17
79016;DHT22;72726;44.842;37.556;2024-03-23T02:08:43;5.12;85.06
79016;DHT22;72726;44.842;37.556;2024-03-23T02:09:45;5.15;85.16
79016;DHT22;72726;44.842;37.556;2024-03-23T02:10:50;5.12;85.14
79016;DHT22;72726;44.842;37.556;2024-03-23T02:11:51;5.15;85.36
79016;DHT22;72726;44.842;37.556;2024-03-23T02:12:53;5.19;85.44
79016;DHT22;72726;44.842;37.556;2024-03-23T02:13:54;5.21;85.16
79016;DHT22;72726;44.842;37.556;2024-03-23T02:14:55;5.21;85.34
79016;DHT22;72726;44.842;37.556;2024-03-23T02:15:57;5.18;85.55
79016;DHT22;72726;44.842;37.556;2024-03-23T02:16:58;5.15;85.24
79016;DHT22;72726;44.842;37.556;2024-03-23T02:17:59;5.12;85.55
79016;DHT22;72726;44.842;37.556;2024-03-23T02:19:01;5.12;85.81
79016;DHT22;72726;44.842;37.556;2024-03-23T02:20:05;5.11;85.68
79016;DHT22;72726;44.842;37.556;2024-03-23T02:21:07;5.11;85.69
79016;DHT22;72726;44.842;37.556;2024-03-23T02:22:09;5.07;85.73
79016;DHT22;72726;44.842;37.556;2024-03-23T02:23:15;5.01;85.79
79016;DHT22;72726;44.842;37.556;2024-03-23T02:24:17;4.99;86.04
79016;DHT22;72726;44.842;37.556;2024-03-23T02:25:19;4.98;86.16
79016;DHT22;72726;44.842;37.556;2024-03-23T02:26:20;4.95;86.36
79016;DHT22;72726;44.842;37.556;2024-03-23T02:27:21;4.94;86.34
79016;DHT22;72726;44.842;37.556;2024-03-23T02:28:22;4.90;86.62
79016;DHT22;72726;44.842;37.556;2024-03-23T02:29:24;4.90;86.82
79016;DHT22;72726;44.842;37.556;2024-03-23T02:30:26;4.88;86.76
79016;DHT22;72726;44.842;37.556;2024-03-23T02:31:27;4.87;86.90
79016;DHT22;72726;44.842;37.556;2024-03-23T02:32:28;4.85;86.92
79016;DHT22;72726;44.842;37.556;2024-03-23T02:33:30;4.87;87.04
79016;DHT22;72726;44.842;37.556;2024-03-23T02:34:35;4.84;87.06
79016;DHT22;72726;44.842;37.556;2024-03-23T02:35:36;4.85;87.29
79016;DHT22;72726;44.842;37.556;2024-03-23T02:36:37;4.85;87.24
79016;DHT22;72726;44.842;37.556;2024-03-23T02:37:39;4.85;87.20
79016;DHT22;72726;44.842;37.556;2024-03-23T02:38:40;4.85;87.25
79016;DHT22;72726;44.842;37.556;2024-03-23T02:39:42;4.88;87.19
79016;DHT22;72726;44.842;37.556;2024-03-23T02:40:43;4.87;86.99
79016;DHT22;72726;44.842;37.556;2024-03-23T02:41:44;4.88;87.02
79016;DHT22;72726;44.842;37.556;2024-03-23T02:42:45;4.87;87.19
79016;DHT22;72726;44.842;37.556;2024-03-23T02:43:50;4.88;87.07
79016;DHT22;72726;44.842;37.556;2024-03-23T02:44:52;4.90;86.98
79016;DHT22;72726;44.842;37.556;2024-03-23T02:45:53;4.85;86.94
79016;DHT22;72726;44.842;37.556;2024-03-23T02:46:54;4.85;86.95
79016;DHT22;72726;44.842;37.556;2024-03-23T02:47:56;4.85;86.59
79016;DHT22;72726;44.842;37.556;2024-03-23T02:48:58;4.87;86.58
79016;DHT22;72726;44.842;37.556;2024-03-23T02:49:59;4.87;86.61
79016;DHT22;72726;44.842;37.556;2024-03-23T02:51:00;4.85;86.61
79016;DHT22;72726;44.842;37.556;2024-03-23T02:52:02;4.84;86.58
79016;DHT22;72726;44.842;37.556;2024-03-23T02:53:03;4.84;86.65
79016;DHT22;72726;44.842;37.556;2024-03-23T02:54:05;4.84;86.75
79016;DHT22;72726;44.842;37.556;2024-03-23T02:55:06;4.87;86.81
79016;DHT22;72726;44.842;37.556;2024-03-23T02:56:10;4.85;86.64
79016;DHT22;72726;44.842;37.556;2024-03-23T02:57:16;4.84;86.61
79016;DHT22;72726;44.842;37.556;2024-03-23T02:58:18;4.81;86.62
79016;DHT22;72726;44.842;37.556;2024-03-23T02:59:22;4.81;86.73
79016;DHT22;72726;44.842;37.556;2024-03-23T03:00:23;4.77;86.55
79016;DHT22;72726;44.842;37.556;2024-03-23T03:01:25;4.80;86.74
79016;DHT22;72726;44.842;37.556;2024-03-23T03:02:28;4.81;86.91
79016;DHT22;72726;44.842;37.556;2024-03-23T03:03:29;4.80;86.86
79016;DHT22;72726;44.842;37.556;2024-03-23T03:04:31;4.79;86.80
79016;DHT22;72726;44.842;37.556;2024-03-23T03:05:32;4.79;86.73
79016;DHT22;72726;44.842;37.556;2024-03-23T03:06:34;4.79;86.87
79016;DHT22;72726;44.842;37.556;2024-03-23T03:07:38;4.79;87.02
79016;DHT22;72726;44.842;37.556;2024-03-23T03:08:44;4.76;86.95
79016;DHT22;72726;44.842;37.556;2024-03-23T03:09:46;4.76;86.93
79016;DHT22;72726;44.842;37.556;2024-03-23T03:10:47;4.76;87.02
79016;DHT22;72726;44.842;37.556;2024-03-23T03:11:48;4.74;87.07
79016;DHT22;72726;44.842;37.556;2024-03-23T03:12:50;4.74;87.17
79016;DHT22;72726;44.842;37.556;2024-03-23T03:13:51;4.76;87.35
79016;DHT22;72726;44.842;37.556;2024-03-23T03:14:53;4.74;87.45
79016;DHT22;72726;44.842;37.556;2024-03-23T03:15:54;4.76;87.28
79016;DHT22;72726;44.842;37.556;2024-03-23T03:16:56;4.74;87.14
79016;DHT22;72726;44.842;37.556;2024-03-23T03:17:57;4.73;87.20
79016;DHT22;72726;44.842;37.556;2024-03-23T03:18:58;4.71;87.22
79016;DHT22;72726;44.842;37.556;2024-03-23T03:20:00;4.73;87.16
79016;DHT22;72726;44.842;37.556;2024-03-23T03:21:01;4.69;87.30
79016;DHT22;72726;44.842;37.556;2024-03-23T03:22:03;4.69;87.26
79016;DHT22;72726;44.842;37.556;2024-03-23T03:23:05;4.67;87.33
79016;DHT22;72726;44.842;37.556;2024-03-23T03:24:07;4.69;87.46
79016;DHT22;72726;44.842;37.556;2024-03-23T03:25:08;4.66;87.51
79016;DHT22;72726;44.842;37.556;2024-03-23T03:26:09;4.63;87.63
79016;DHT22;72726;44.842;37.556;2024-03-23T03:27:11;4.63;87.81
79016;DHT22;72726;44.842;37.556;2024-03-23T03:28:12;4.63;87.85
79016;DHT22;72726;44.842;37.556;2024-03-23T03:29:13;4.66;87.95
79016;DHT22;72726;44.842;37.556;2024-03-23T03:30:15;4.64;87.99
79016;DHT22;72726;44.842;37.556;2024-03-23T03:31:16;4.66;87.89
79016;DHT22;72726;44.842;37.556;2024-03-23T03:32:18;4.69;87.94
79016;DHT22;72726;44.842;37.556;2024-03-23T03:33:19;4.69;87.76
79016;DHT22;72726;44.842;37.556;2024-03-23T03:34:20;4.69;87.74
79016;DHT22;72726;44.842;37.556;2024-03-23T03:35:22;4.70;87.72
79016;DHT22;72726;44.842;37.556;2024-03-23T03:36:23;4.67;87.64
79016;DHT22;72726;44.842;37.556;2024-03-23T03:37:24;4.69;87.72
79016;DHT22;72726;44.842;37.556;2024-03-23T03:38:26;4.69;87.84
79016;DHT22;72726;44.842;37.556;2024-03-23T03:39:27;4.67;87.69
79016;DHT22;72726;44.842;37.556;2024-03-23T03:40:28;4.69;87.60
79016;DHT22;72726;44.842;37.556;2024-03-23T03:41:31;4.67;87.51
79016;DHT22;72726;44.842;37.556;2024-03-23T03:42:32;4.66;87.49
79016;DHT22;72726;44.842;37.556;2024-03-23T03:43:33;4.66;87.54
79016;DHT22;72726;44.842;37.556;2024-03-23T03:44:35;4.63;87.51
79016;DHT22;72726;44.842;37.556;2024-03-23T03:45:38;4.66;87.67
79016;DHT22;72726;44.842;37.556;2024-03-23T03:46:39;4.63;87.59
79016;DHT22;72726;44.842;37.556;2024-03-23T03:47:40;4.66;87.60
79016;DHT22;72726;44.842;37.556;2024-03-23T03:48:41;4.63;87.63
79016;DHT22;72726;44.842;37.556;2024-03-23T03:49:43;4.63;87.45
79016;DHT22;72726;44.842;37.556;2024-03-23T03:50:44;4.61;87.53
79016;DHT22;72726;44.842;37.556;2024-03-23T03:51:45;4.63;87.60
79016;DHT22;72726;44.842;37.556;2024-03-23T03:52:46;4.61;87.56
79016;DHT22;72726;44.842;37.556;2024-03-23T03:53:48;4.61;87.88
79016;DHT22;72726;44.842;37.556;2024-03-23T03:54:49;4.64;88.00
79016;DHT22;72726;44.842;37.556;2024-03-23T03:55:51;4.64;87.92
79016;DHT22;72726;44.842;37.556;2024-03-23T03:56:52;4.67;87.82
79016;DHT22;72726;44.842;37.556;2024-03-23T03:57:54;4.66;87.84
79016;DHT22;72726;44.842;37.556;2024-03-23T03:58:55;4.66;87.87
79016;DHT22;72726;44.842;37.556;2024-03-23T03:59:56;4.67;87.87
79016;DHT22;72726;44.842;37.556;2024-03-23T04:00:58;4.66;88.00
79016;DHT22;72726;44.842;37.556;2024-03-23T04:01:59;4.66;88.08
79016;DHT22;72726;44.842;37.556;2024-03-23T04:03:02;4.70;88.11
79016;DHT22;72726;44.842;37.556;2024-03-23T04:04:03;4.69;88.02
79016;DHT22;72726;44.842;37.556;2024-03-23T04:05:05;4.71;88.03
79016;DHT22;72726;44.842;37.556;2024-03-23T04:06:06;4.73;88.05
79016;DHT22;72726;44.842;37.556;2024-03-23T04:07:08;4.71;88.10
79016;DHT22;72726;44.842;37.556;2024-03-23T04:08:09;4.71;88.08
79016;DHT22;72726;44.842;37.556;2024-03-23T04:09:10;4.71;88.12
79016;DHT22;72726;44.842;37.556;2024-03-23T04:10:12;4.74;88.47
79016;DHT22;72726;44.842;37.556;2024-03-23T04:11:14;4.70;88.37
79016;DHT22;72726;44.842;37.556;2024-03-23T04:12:15;4.71;88.64
79016;DHT22;72726;44.842;37.556;2024-03-23T04:13:16;4.71;88.69
79016;DHT22;72726;44.842;37.556;2024-03-23T04:14:17;4.70;88.81
79016;DHT22;72726;44.842;37.556;2024-03-23T04:15:19;4.70;88.96
79016;DHT22;72726;44.842;37.556;2024-03-23T04:16:28;4.70;88.86
79016;DHT22;72726;44.842;37.556;2024-03-23T04:17:30;4.70;88.75
79016;DHT22;72726;44.842;37.556;2024-03-23T04:18:52;4.66;88.66
79016;DHT22;72726;44.842;37.556;2024-03-23T04:19:55;4.66;88.75
79016;DHT22;72726;44.842;37.556;2024-03-23T04:20:58;4.67;88.89
79016;DHT22;72726;44.842;37.556;2024-03-23T04:21:59;4.69;88.86
79016;DHT22;72726;44.842;37.556;2024-03-23T04:23:00;4.69;88.49
79016;DHT22;72726;44.842;37.556;2024-03-23T04:24:02;4.70;88.46
79016;DHT22;72726;44.842;37.556;2024-03-23T04:25:03;4.67;88.36
79016;DHT22;72726;44.842;37.556;2024-03-23T04:26:08;4.71;88.60
79016;DHT22;72726;44.842;37.556;2024-03-23T04:27:09;4.73;88.48
79016;DHT22;72726;44.842;37.556;2024-03-23T04:28:10;4.74;88.27
79016;DHT22;72726;44.842;37.556;2024-03-23T04:29:11;4.76;88.34
79016;DHT22;72726;44.842;37.556;2024-03-23T04:30:13;4.79;88.32
79016;DHT22;72726;44.842;37.556;2024-03-23T04:31:14;4.81;87.99
79016;DHT22;72726;44.842;37.556;2024-03-23T04:32:17;4.84;87.94
79016;DHT22;72726;44.842;37.556;2024-03-23T04:33:18;4.84;87.78
79016;DHT22;72726;44.842;37.556;2024-03-23T04:34:20;4.83;87.68
79016;DHT22;72726;44.842;37.556;2024-03-23T04:35:21;4.83;87.63
79016;DHT22;72726;44.842;37.556;2024-03-23T04:36:26;4.84;87.86
79016;DHT22;72726;44.842;37.556;2024-03-23T04:37:27;4.84;87.92
79016;DHT22;72726;44.842;37.556;2024-03-23T04:38:29;4.84;87.94
79016;DHT22;72726;44.842;37.556;2024-03-23T04:39:30;4.84;88.12
79016;DHT22;72726;44.842;37.556;2024-03-23T04:40:31;4.88;88.15
79016;DHT22;72726;44.842;37.556;2024-03-23T04:41:32;4.90;88.08
79016;DHT22;72726;44.842;37.556;2024-03-23T04:42:34;4.91;87.95
79016;DHT22;72726;44.842;37.556;2024-03-23T04:43:35;4.91;87.82
79016;DHT22;72726;44.842;37.556;2024-03-23T04:44:36;4.94;87.76
79016;DHT22;72726;44.842;37.556;2024-03-23T04:45:37;4.94;87.89
79016;DHT22;72726;44.842;37.556;2024-03-23T04:46:39;4.97;87.93
79016;DHT22;72726;44.842;37.556;2024-03-23T04:47:40;5.02;87.81
79016;DHT22;72726;44.842;37.556;2024-03-23T04:48:41;5.07;87.82
79016;DHT22;72726;44.842;37.556;2024-03-23T04:49:45;5.05;87.66
79016;DHT22;72726;44.842;37.556;2024-03-23T04:50:46;5.05;87.68
79016;DHT22;72726;44.842;37.556;2024-03-23T04:51:48;5.11;87.88
79016;DHT22;72726;44.842;37.556;2024-03-23T04:52:51;5.15;88.17
79016;DHT22;72726;44.842;37.556;2024-03-23T04:53:54;5.19;88.28
79016;DHT22;72726;44.842;37.556;2024-03-23T04:54:56;5.22;88.38
79016;DHT22;72726;44.842;37.556;2024-03-23T04:55:58;5.28;88.61
79016;DHT22;72726;44.842;37.556;2024-03-23T04:57:00;5.31;88.57
79016;DHT22;72726;44.842;37.556;2024-03-23T04:58:01;5.36;88.37
79016;DHT22;72726;44.842;37.556;2024-03-23T04:59:02;5.38;87.75
79016;DHT22;72726;44.842;37.556;2024-03-23T05:00:06;5.38;87.17
79016;DHT22;72726;44.842;37.556;2024-03-23T05:01:18;5.42;87.06
79016;DHT22;72726;44.842;37.556;2024-03-23T05:02:19;5.45;86.90
79016;DHT22;72726;44.842;37.556;2024-03-23T05:03:21;5.47;86.77
79016;DHT22;72726;44.842;37.556;2024-03-23T05:04:22;5.53;86.97
79016;DHT22;72726;44.842;37.556;2024-03-23T05:05:24;5.62;87.05
79016;DHT22;72726;44.842;37.556;2024-03-23T05:06:25;5.69;87.07
79016;DHT22;72726;44.842;37.556;2024-03-23T05:07:27;5.71;86.28
79016;DHT22;72726;44.842;37.556;2024-03-23T05:08:28;5.73;85.71
79016;DHT22;72726;44.842;37.556;2024-03-23T05:09:30;5.77;85.44
79016;DHT22;72726;44.842;37.556;2024-03-23T05:10:31;5.77;84.56
79016;DHT22;72726;44.842;37.556;2024-03-23T05:11:33;5.74;84.40
79016;DHT22;72726;44.842;37.556;2024-03-23T05:12:35;5.70;84.48
79016;DHT22;72726;44.842;37.556;2024-03-23T05:13:36;5.66;84.15
79016;DHT22;72726;44.842;37.556;2024-03-23T05:14:37;5.69;84.24
79016;DHT22;72726;44.842;37.556;2024-03-23T05:15:39;5.67;83.80
79016;DHT22;72726;44.842;37.556;2024-03-23T05:16:40;5.70;84.43
79016;DHT22;72726;44.842;37.556;2024-03-23T05:17:44;5.74;84.35
79016;DHT22;72726;44.842;37.556;2024-03-23T05:18:46;5.74;84.05
79016;DHT22;72726;44.842;37.556;2024-03-23T05:19:49;5.74;83.86
79016;DHT22;72726;44.842;37.556;2024-03-23T05:20:55;5.80;84.43
79016;DHT22;72726;44.842;37.556;2024-03-23T05:21:59;5.78;84.21
79016;DHT22;72726;44.842;37.556;2024-03-23T05:23:01;5.77;83.92
79016;DHT22;72726;44.842;37.556;2024-03-23T05:24:02;5.80;84.48
79016;DHT22;72726;44.842;37.556;2024-03-23T05:25:04;5.86;84.52
79016;DHT22;72726;44.842;37.556;2024-03-23T05:26:06;5.83;83.99
79016;DHT22;72726;44.842;37.556;2024-03-23T05:27:07;5.81;84.12
79016;DHT22;72726;44.842;37.556;2024-03-23T05:28:09;5.84;84.39
79016;DHT22;72726;44.842;37.556;2024-03-23T05:29:10;5.87;84.51
79016;DHT22;72726;44.842;37.556;2024-03-23T05:30:14;5.83;83.97
79016;DHT22;72726;44.842;37.556;2024-03-23T05:31:26;5.81;83.60
79016;DHT22;72726;44.842;37.556;2024-03-23T05:32:30;5.77;84.03
79016;DHT22;72726;44.842;37.556;2024-03-23T05:33:32;5.77;84.12
79016;DHT22;72726;44.842;37.556;2024-03-23T05:34:33;5.77;84.08
79016;DHT22;72726;44.842;37.556;2024-03-23T05:35:34;5.77;83.95
79016;DHT22;72726;44.842;37.556;2024-03-23T05:36:38;5.75;84.30
79016;DHT22;72726;44.842;37.556;2024-03-23T05:37:39;5.80;84.07
79016;DHT22;72726;44.842;37.556;2024-03-23T05:38:41;5.80;84.55
79016;DHT22;72726;44.842;37.556;2024-03-23T05:39:42;5.84;84.55
79016;DHT22;72726;44.842;37.556;2024-03-23T05:40:58;5.83;84.39
79016;DHT22;72726;44.842;37.556;2024-03-23T05:42:01;5.86;84.94
79016;DHT22;72726;44.842;37.556;2024-03-23T05:43:06;5.87;84.89
79016;DHT22;72726;44.842;37.556;2024-03-23T05:44:07;5.91;85.39
79016;DHT22;72726;44.842;37.556;2024-03-23T05:45:09;5.98;85.85
79016;DHT22;72726;44.842;37.556;2024-03-23T05:46:12;6.07;85.95
79016;DHT22;72726;44.842;37.556;2024-03-23T05:47:13;6.12;85.74
79016;DHT22;72726;44.842;37.556;2024-03-23T05:48:16;6.18;84.99
79016;DHT22;72726;44.842;37.556;2024-03-23T05:49:18;6.25;85.00
79016;DHT22;72726;44.842;37.556;2024-03-23T05:50:21;6.32;84.13
79016;DHT22;72726;44.842;37.556;2024-03-23T05:51:25;6.32;83.86
79016;DHT22;72726;44.842;37.556;2024-03-23T05:52:27;6.33;83.31
79016;DHT22;72726;44.842;37.556;2024-03-23T05:53:28;6.33;83.54
79016;DHT22;72726;44.842;37.556;2024-03-23T05:54:31;6.39;84.15
79016;DHT22;72726;44.842;37.556;2024-03-23T05:55:32;6.43;84.14
79016;DHT22;72726;44.842;37.556;2024-03-23T05:56:33;6.52;83.91
79016;DHT22;72726;44.842;37.556;2024-03-23T05:57:37;6.56;83.00
79016;DHT22;72726;44.842;37.556;2024-03-23T05:58:40;6.57;82.74
79016;DHT22;72726;44.842;37.556;2024-03-23T05:59:44;6.62;82.79
79016;DHT22;72726;44.842;37.556;2024-03-23T06:01:02;6.67;82.81
79016;DHT22;72726;44.842;37.556;2024-03-23T06:02:06;6.73;82.36
79016;DHT22;72726;44.842;37.556;2024-03-23T06:03:08;6.73;82.18
79016;DHT22;72726;44.842;37.556;2024-03-23T06:04:10;6.73;82.26
79016;DHT22;72726;44.842;37.556;2024-03-23T06:05:15;6.81;82.62
79016;DHT22;72726;44.842;37.556;2024-03-23T06:06:19;6.87;82.51
79016;DHT22;72726;44.842;37.556;2024-03-23T06:07:20;6.92;82.04
79016;DHT22;72726;44.842;37.556;2024-03-23T06:08:22;6.94;81.75
79016;DHT22;72726;44.842;37.556;2024-03-23T06:09:25;6.94;81.37
79016;DHT22;72726;44.842;37.556;2024-03-23T06:10:27;6.97;81.47
79016;DHT22;72726;44.842;37.556;2024-03-23T06:11:31;7.02;81.34
79016;DHT22;72726;44.842;37.556;2024-03-23T06:12:36;7.05;81.58
79016;DHT22;72726;44.842;37.556;2024-03-23T06:13:40;7.09;81.43
79016;DHT22;72726;44.842;37.556;2024-03-23T06:14:41;7.14;81.28
79016;DHT22;72726;44.842;37.556;2024-03-23T06:15:44;7.18;81.10
79016;DHT22;72726;44.842;37.556;2024-03-23T06:16:47;7.25;80.99
79016;DHT22;72726;44.842;37.556;2024-03-23T06:17:48;7.28;80.07
79016;DHT22;72726;44.842;37.556;2024-03-23T06:18:51;7.29;80.13
79016;DHT22;72726;44.842;37.556;2024-03-23T06:19:52;7.36;80.50
79016;DHT22;72726;44.842;37.556;2024-03-23T06:20:53;7.43;80.41
79016;DHT22;72726;44.842;37.556;2024-03-23T06:21:57;7.53;79.60
79016;DHT22;72726;44.842;37.556;2024-03-23T06:22:58;7.57;79.31
79016;DHT22;72726;44.842;37.556;2024-03-23T06:24:03;7.60;78.27
79016;DHT22;72726;44.842;37.556;2024-03-23T06:25:08;7.62;78.36
79016;DHT22;72726;44.842;37.556;2024-03-23T06:26:10;7.69;78.77
79016;DHT22;72726;44.842;37.556;2024-03-23T06:27:11;7.66;78.10
79016;DHT22;72726;44.842;37.556;2024-03-23T06:28:12;7.70;77.67
79016;DHT22;72726;44.842;37.556;2024-03-23T06:29:21;7.67;77.52
79016;DHT22;72726;44.842;37.556;2024-03-23T06:30:24;7.69;76.97
79016;DHT22;72726;44.842;37.556;2024-03-23T06:31:35;7.70;77.36
79016;DHT22;72726;44.842;37.556;2024-03-23T06:32:36;7.77;77.57
79016;DHT22;72726;44.842;37.556;2024-03-23T06:33:40;7.78;77.45
79016;DHT22;72726;44.842;37.556;2024-03-23T06:34:47;7.84;77.98
79016;DHT22;72726;44.842;37.556;2024-03-23T06:35:52;7.91;77.53
79016;DHT22;72726;44.842;37.556;2024-03-23T06:36:53;7.94;77.44
79016;DHT22;72726;44.842;37.556;2024-03-23T06:37:59;7.91;77.19
79016;DHT22;72726;44.842;37.556;2024-03-23T06:39:02;7.91;78.37
79016;DHT22;72726;44.842;37.556;2024-03-23T06:40:05;7.87;77.49
79016;DHT22;72726;44.842;37.556;2024-03-23T06:41:10;7.84;77.60
79016;DHT22;72726;44.842;37.556;2024-03-23T06:42:14;7.75;77.96
79016;DHT22;72726;44.842;37.556;2024-03-23T06:43:15;7.74;78.73
79016;DHT22;72726;44.842;37.556;2024-03-23T06:44:20;7.71;78.77
79016;DHT22;72726;44.842;37.556;2024-03-23T06:45:24;7.63;79.20
79016;DHT22;72726;44.842;37.556;2024-03-23T06:46:25;7.57;79.12
79016;DHT22;72726;44.842;37.556;2024-03-23T06:47:27;7.56;79.72
79016;DHT22;72726;44.842;37.556;2024-03-23T06:48:28;7.59;79.91
79016;DHT22;72726;44.842;37.556;2024-03-23T06:49:30;7.57;79.52
79016;DHT22;72726;44.842;37.556;2024-03-23T06:50:34;7.59;79.84
79016;DHT22;72726;44.842;37.556;2024-03-23T06:51:36;7.56;79.71
79016;DHT22;72726;44.842;37.556;2024-03-23T06:52:38;7.57;80.07
79016;DHT22;72726;44.842;37.556;2024-03-23T06:53:40;7.60;79.32
79016;DHT22;72726;44.842;37.556;2024-03-23T06:54:42;7.54;79.46
79016;DHT22;72726;44.842;37.556;2024-03-23T06:55:50;7.52;80.07
79016;DHT22;72726;44.842;37.556;2024-03-23T06:56:52;7.60;80.82
79016;DHT22;72726;44.842;37.556;2024-03-23T06:57:53;7.66;80.98
79016;DHT22;72726;44.842;37.556;2024-03-23T06:58:57;7.77;80.21
79016;DHT22;72726;44.842;37.556;2024-03-23T06:59:59;7.85;79.96
79016;DHT22;72726;44.842;37.556;2024-03-23T07:01:00;7.92;79.70
79016;DHT22;72726;44.842;37.556;2024-03-23T07:02:01;7.98;80.05
79016;DHT22;72726;44.842;37.556;2024-03-23T07:03:03;8.03;79.69
79016;DHT22;72726;44.842;37.556;2024-03-23T07:04:05;8.16;80.34
79016;DHT22;72726;44.842;37.556;2024-03-23T07:05:07;8.25;80.75
79016;DHT22;72726;44.842;37.556;2024-03-23T07:06:09;8.39;80.75
79016;DHT22;72726;44.842;37.556;2024-03-23T07:07:11;8.47;78.91
79016;DHT22;72726;44.842;37.556;2024-03-23T07:08:12;8.56;78.84
79016;DHT22;72726;44.842;37.556;2024-03-23T07:09:15;8.68;79.25
79016;DHT22;72726;44.842;37.556;2024-03-23T07:10:16;8.75;78.51
79016;DHT22;72726;44.842;37.556;2024-03-23T07:11:22;8.85;79.56
79016;DHT22;72726;44.842;37.556;2024-03-23T07:12:25;8.98;79.52
79016;DHT22;72726;44.842;37.556;2024-03-23T07:13:29;9.04;77.81
79016;DHT22;72726;44.842;37.556;2024-03-23T07:14:30;9.04;77.18
79016;DHT22;72726;44.842;37.556;2024-03-23T07:15:32;9.07;77.36
79016;DHT22;72726;44.842;37.556;2024-03-23T07:16:33;9.10;76.99
79016;DHT22;72726;44.842;37.556;2024-03-23T07:17:35;9.18;77.20
79016;DHT22;72726;44.842;37.556;2024-03-23T07:18:36;9.28;77.04
79016;DHT22;72726;44.842;37.556;2024-03-23T07:19:37;9.33;76.68
79016;DHT22;72726;44.842;37.556;2024-03-23T07:20:39;9.39;76.50
79016;DHT22;72726;44.842;37.556;2024-03-23T07:21:40;9.46;75.74
79016;DHT22;72726;44.842;37.556;2024-03-23T07:22:41;9.50;75.40
79016;DHT22;72726;44.842;37.556;2024-03-23T07:23:43;9.49;74.04
79016;DHT22;72726;44.842;37.556;2024-03-23T07:24:47;9.49;74.84
79016;DHT22;72726;44.842;37.556;2024-03-23T07:26:04;9.46;74.85